Terminal Aerodrome Forecast
Issued by NWS Binghamton, NY

Home | Current Version | Previous Version | Text Only | Print | Product List | Glossary On
Versions: 1 2 3 4 5 6 7 8 9 10 11 12 13 14 15 16 17 18 19
000
FTUS41 KBGM 221700
TAFAVP
TAF
KAVP 221730Z 2218/2318 23010KT P6SM BKN035
     FM230100 VRB03KT P6SM SCT030
      TEMPO 2308/2312 4SM BR
     FM231500 23010KT P6SM BKN035=

USA.gov is the U.S. government's official web portal to all federal, state and local government web resources and services.